Time;durP1;ratioP1;P1;durP2;ratioP2;P2;SDS_P1;SDS_P2;PMS_P1;PMS_P2;Temp;Humidity;BMP_temperature;BMP_pressure;BME280_temperature;BME280_humidity;BME280_pressure;Samples;Min_cycle;Max_cycle;Signal;HPM_P1;HPM_P2
2021/08/06 00:00:19;;;;;;;2.20;2.00;;;;;;;14.84;49.56;94565.41;5009156;28;20371;-71
2021/08/06 00:02:44;;;;;;;1.98;1.88;;;;;;;14.90;49.84;94558.31;5009087;28;20037;-71
2021/08/06 00:05:10;;;;;;;2.60;2.05;;;;;;;14.97;49.60;94559.84;5007039;28;20525;-72
2021/08/06 00:07:36;;;;;;;1.70;1.60;;;;;;;14.94;49.09;94560.28;5007849;28;20718;-72
2021/08/06 00:10:01;;;;;;;3.00;2.00;;;;;;;15.10;50.02;94566.81;5008377;28;20076;-71
2021/08/06 00:12:27;;;;;;;2.15;2.05;;;;;;;15.15;49.85;94555.41;5006151;28;20381;-72
2021/08/06 00:14:52;;;;;;;2.47;2.20;;;;;;;15.16;49.26;94550.88;5009016;28;20725;-71
2021/08/06 00:17:18;;;;;;;3.58;2.53;;;;;;;15.09;49.95;94551.78;5007097;28;20042;-72
2021/08/06 00:19:43;;;;;;;3.63;2.55;;;;;;;15.19;50.15;94553.06;5007320;28;20053;-72
2021/08/06 00:22:09;;;;;;;2.58;2.33;;;;;;;15.24;50.01;94550.50;5009226;28;20037;-72
2021/08/06 00:24:34;;;;;;;3.80;2.22;;;;;;;15.22;49.11;94545.38;5008615;28;20029;-72
2021/08/06 00:27:00;;;;;;;8.65;2.67;;;;;;;15.31;49.99;94540.47;5008974;28;20030;-72
2021/08/06 00:29:25;;;;;;;2.70;2.50;;;;;;;15.28;49.61;94542.81;4991052;28;20089;-71
2021/08/06 00:31:50;;;;;;;5.50;2.70;;;;;;;15.35;49.82;94546.19;5008401;28;20050;-71
2021/08/06 00:34:16;;;;;;;3.60;2.80;;;;;;;15.29;49.91;94550.63;5008891;28;20037;-71
2021/08/06 00:36:41;;;;;;;2.55;2.35;;;;;;;15.24;49.44;94543.25;5008425;28;20435;-72
2021/08/06 00:39:07;;;;;;;3.83;2.92;;;;;;;14.69;51.78;94537.16;5008765;28;20459;-71
2021/08/06 00:41:32;;;;;;;4.00;2.95;;;;;;;14.16;53.20;94538.78;5008560;28;20038;-72
2021/08/06 00:43:58;;;;;;;3.13;2.90;;;;;;;14.24;52.43;94543.78;5008642;28;20049;-72
2021/08/06 00:46:23;;;;;;;3.58;2.50;;;;;;;14.50;51.67;94538.28;5008823;28;20561;-72
2021/08/06 00:48:48;;;;;;;3.92;2.80;;;;;;;14.60;51.56;94543.91;5004343;28;20049;-72
2021/08/06 00:51:14;;;;;;;3.78;3.08;;;;;;;14.58;52.45;94543.31;5008449;28;20037;-71
2021/08/06 00:53:40;;;;;;;2.97;2.60;;;;;;;14.67;51.80;94544.63;4987637;28;20154;-73
2021/08/06 00:56:05;;;;;;;5.15;2.38;;;;;;;;;;5008056;28;20084;-71
2021/08/06 00:58:30;;;;;;;2.80;2.60;;;;;;;14.97;50.85;94542.94;5006756;28;20038;-71
2021/08/06 01:00:56;;;;;;;2.60;2.40;;;;;;;15.06;51.19;94540.72;4990342;28;20538;-71
2021/08/06 01:03:23;;;;;;;5.30;2.60;;;;;;;15.16;50.75;94537.47;5005920;28;20046;-72
2021/08/06 01:05:55;;;;;;;2.45;2.22;;;;;;;15.15;49.96;94527.78;5007240;28;20438;-72
2021/08/06 01:08:22;;;;;;;3.13;2.60;;;;;;;15.11;50.36;94530.13;5006503;28;20030;-72
2021/08/06 01:10:53;;;;;;;4.78;2.42;;;;;;;15.04;50.40;94532.91;4991361;28;20091;-72
2021/08/06 01:13:24;;;;;;;2.50;2.30;;;;;;;14.93;50.69;94537.19;5011708;28;20046;-71
2021/08/06 01:15:52;;;;;;;2.50;2.30;;;;;;;14.85;50.75;94540.22;5010184;28;20053;-72
2021/08/06 01:18:17;;;;;;;;;;;;;;;14.85;50.65;94542.91;4976416;28;20495;-71
2021/08/06 01:20:45;;;;;;;2.40;2.20;;;;;;;14.97;50.41;94530.34;5043163;28;19924;-72
2021/08/06 01:23:17;;;;;;;2.38;2.17;;;;;;;14.93;50.51;94529.16;5010808;28;20030;-72
2021/08/06 01:26:00;;;;;;;2.58;2.33;;;;;;;14.88;50.37;94529.06;5010520;28;20091;-71
2021/08/06 01:28:27;;;;;;;3.45;2.20;;;;;;;14.90;50.34;94536.88;5005475;28;20038;-71
2021/08/06 01:30:53;;;;;;;4.03;2.03;;;;;;;14.86;50.27;94531.16;5011926;28;20495;-72
2021/08/06 01:33:18;;;;;;;3.70;1.95;;;;;;;14.82;50.02;94522.75;5009959;28;20124;-72
2021/08/06 01:35:44;;;;;;;3.67;2.03;;;;;;;14.75;49.67;94518.56;5009985;28;20038;-72
2021/08/06 01:38:10;;;;;;;2.30;2.10;;;;;;;14.64;49.86;94520.97;5010672;28;20042;-71
2021/08/06 01:41:02;;;;;;;3.05;2.10;;;;;;;14.66;49.94;94518.06;5010014;28;20034;-72
2021/08/06 01:43:32;;;;;;;2.20;2.00;;;;;;;14.61;49.46;94512.59;5011328;28;20034;-71
2021/08/06 01:46:16;;;;;;;7.85;2.20;;;;;;;14.53;50.33;94516.41;4994300;28;20057;-72
2021/08/06 01:48:42;;;;;;;4.65;2.10;;;;;;;14.43;50.00;94515.13;5010148;28;20369;-72
2021/08/06 01:51:07;;;;;;;2.35;2.10;;;;;;;14.43;50.13;94512.44;5010403;28;20052;-71
2021/08/06 01:53:36;;;;;;;4.72;2.20;;;;;;;14.40;49.88;94512.06;5009618;28;20038;-71
2021/08/06 01:56:03;;;;;;;2.20;1.88;;;;;;;14.36;50.24;94506.38;5009873;28;20038;-72
2021/08/06 01:58:29;;;;;;;5.18;2.42;;;;;;;14.46;50.19;94511.16;5009997;28;20126;-72
2021/08/06 02:00:54;;;;;;;6.45;2.28;;;;;;;14.45;49.91;94510.34;4992175;28;20150;-72
2021/08/06 02:03:21;;;;;;;3.22;2.42;;;;;;;14.33;50.21;94509.50;4975967;28;20034;-71
2021/08/06 02:05:50;;;;;;;4.47;2.38;;;;;;;14.33;50.44;94512.19;5006463;28;20038;-73
2021/08/06 02:08:16;;;;;;;2.70;2.50;;;;;;;14.27;50.84;94507.72;5022545;28;20038;-72
2021/08/06 02:10:41;;;;;;;4.65;2.40;;;;;;;14.37;51.12;94508.00;4990270;28;20046;-72
2021/08/06 02:13:07;;;;;;;11.30;2.58;;;;;;;14.41;50.51;94498.44;4990834;28;20042;-71
2021/08/06 02:15:33;;;;;;;27.88;2.85;;;;;;;14.57;50.90;94506.84;5022733;28;20089;-72
2021/08/06 02:17:58;;;;;;;21.73;2.63;;;;;;;14.54;50.60;94494.75;4973828;28;20022;-72
2021/08/06 02:20:24;;;;;;;22.05;2.40;;;;;;;14.55;50.84;94493.69;4973669;28;20431;-72
2021/08/06 02:22:50;;;;;;;11.75;2.50;;;;;;;14.58;50.80;94487.06;4988852;28;20464;-72
2021/08/06 02:25:15;;;;;;;39.05;2.80;;;;;;;14.61;50.70;94491.97;4973714;28;20041;-71
2021/08/06 02:27:41;;;;;;;26.50;2.45;;;;;;;14.63;50.57;94472.97;4973434;28;20026;-72
2021/08/06 02:30:06;;;;;;;19.20;2.70;;;;;;;14.66;50.80;94470.69;4989970;28;20030;-72
2021/08/06 02:32:32;;;;;;;30.83;2.70;;;;;;;14.72;50.57;94469.72;4990654;28;20046;-72
2021/08/06 02:34:58;;;;;;;15.90;2.45;;;;;;;14.66;50.66;94465.31;4989802;28;20520;-72
2021/08/06 02:37:23;;;;;;;17.60;2.72;;;;;;;14.72;50.35;94474.25;4970979;28;20126;-72
2021/08/06 02:39:48;;;;;;;4.03;2.22;;;;;;;14.68;50.26;94465.88;4989563;28;20043;-72
2021/08/06 02:42:14;;;;;;;15.43;2.50;;;;;;;14.63;50.79;94467.63;4989749;28;20030;-72
2021/08/06 02:44:40;;;;;;;35.60;2.88;;;;;;;14.64;50.55;94455.84;4990856;28;20046;-72
2021/08/06 02:47:06;;;;;;;5.70;2.15;;;;;;;14.58;50.95;94457.59;4989675;28;20353;-72
2021/08/06 02:49:33;;;;;;;5.07;2.53;;;;;;;14.59;50.88;94452.00;4972995;28;20081;-72
2021/08/06 02:52:04;;;;;;;23.23;2.63;;;;;;;14.67;50.61;94447.38;4989349;28;20045;-72
2021/08/06 02:54:29;;;;;;;39.03;2.55;;;;;;;14.71;50.99;94457.38;4990910;28;20034;-72
2021/08/06 02:56:55;;;;;;;27.42;2.65;;;;;;;14.70;50.76;94446.91;4990453;28;20089;-72
2021/08/06 02:59:20;;;;;;;6.40;2.08;;;;;;;14.63;50.81;94451.56;4990561;28;20037;-72
2021/08/06 03:01:46;;;;;;;8.57;2.03;;;;;;;14.68;51.67;94449.81;4990642;28;20034;-72
2021/08/06 03:04:11;;;;;;;8.43;2.30;;;;;;;14.78;50.95;94438.53;4989955;28;20053;-71
2021/08/06 03:06:36;;;;;;;3.95;2.40;;;;;;;14.82;50.87;94445.06;4990331;28;20026;-72
2021/08/06 03:09:02;;;;;;;8.25;2.55;;;;;;;14.77;50.92;94446.81;4989921;28;20031;-71
2021/08/06 03:11:27;;;;;;;11.30;2.40;;;;;;;14.81;50.66;94447.97;4990247;28;20064;-71
2021/08/06 03:13:53;;;;;;;2.22;2.10;;;;;;;14.89;50.47;94449.50;4989054;28;20064;-72
2021/08/06 03:16:18;;;;;;;9.55;2.80;;;;;;;14.54;51.49;94448.41;4988800;28;20042;-72
2021/08/06 03:18:44;;;;;;;6.75;2.60;;;;;;;14.66;51.17;94457.28;4990397;28;20030;-72
2021/08/06 03:21:09;;;;;;;10.38;2.65;;;;;;;;;;4989770;28;20038;-71
2021/08/06 03:23:34;;;;;;;5.27;2.57;;;;;;;14.74;51.39;94458.00;4989680;28;20037;-72
2021/08/06 03:26:00;;;;;;;4.68;2.90;;;;;;;14.21;52.88;94454.06;4988690;28;20061;-72
2021/08/06 03:28:25;;;;;;;2.30;2.20;;;;;;;14.33;51.60;94455.97;4988262;28;20034;-72
2021/08/06 03:30:51;;;;;;;3.05;2.35;;;;;;;14.55;51.93;94450.84;4990066;28;20030;-72
2021/08/06 03:33:16;;;;;;;5.40;3.45;;;;;;;14.58;51.66;94460.28;4987987;28;20057;-72
2021/08/06 03:35:42;;;;;;;3.45;2.30;;;;;;;14.60;51.24;94452.84;4988088;28;20101;-72
2021/08/06 03:38:21;;;;;;;3.53;3.00;;;;;;;14.79;51.22;94452.75;4988726;28;20061;-71
2021/08/06 03:40:47;;;;;;;4.18;3.40;;;;;;;14.74;51.72;94458.00;5021240;28;20369;-72
2021/08/06 03:43:13;;;;;;;2.65;2.45;;;;;;;14.80;51.30;94457.91;4988587;28;20112;-72
2021/08/06 03:45:38;;;;;;;2.75;2.55;;;;;;;14.88;51.05;94447.84;4987914;28;20472;-72
2021/08/06 03:48:04;;;;;;;4.63;3.22;;;;;;;14.71;51.50;94449.34;4996140;28;20558;-72
2021/08/06 03:50:30;;;;;;;3.30;3.00;;;;;;;14.86;50.86;94456.16;5007924;28;20030;-72
2021/08/06 03:52:55;;;;;;;3.20;2.90;;;;;;;14.71;51.36;94453.88;4991191;28;20414;-72
2021/08/06 03:55:20;;;;;;;4.70;2.60;;;;;;;14.65;51.32;94452.94;4990803;28;20083;-72
2021/08/06 03:57:53;;;;;;;3.08;2.75;;;;;;;15.03;50.93;94450.06;5009148;28;20458;-72
2021/08/06 04:00:19;;;;;;;3.40;2.88;;;;;;;14.81;51.01;94451.47;5007233;28;20495;-72
2021/08/06 04:02:45;;;;;;;4.07;3.15;;;;;;;14.84;51.46;94448.34;5007660;28;20050;-72
2021/08/06 04:05:11;;;;;;;2.92;2.72;;;;;;;14.66;51.33;94441.22;5006973;28;20575;-71
2021/08/06 04:07:46;;;;;;;4.10;3.50;;;;;;;14.42;52.39;94437.69;5007224;28;20049;-71
2021/08/06 04:10:12;;;;;;;3.28;2.97;;;;;;;14.24;53.01;94446.63;5006813;28;20032;-73
2021/08/06 04:12:38;;;;;;;3.00;2.80;;;;;;;14.56;52.01;94439.13;5007232;28;20042;-72
2021/08/06 04:15:04;;;;;;;4.05;2.72;;;;;;;14.61;51.72;94437.59;5007496;28;20033;-72
2021/08/06 04:17:29;;;;;;;3.65;3.33;;;;;;;14.77;51.79;94436.91;5007520;28;20037;-72
2021/08/06 04:19:55;;;;;;;4.85;2.97;;;;;;;14.91;51.29;94437.50;5008149;28;20539;-72
2021/08/06 04:22:20;;;;;;;3.60;2.70;;;;;;;14.52;51.95;94434.44;5007509;28;20038;-72
2021/08/06 04:24:45;;;;;;;2.60;2.40;;;;;;;14.61;51.61;94437.59;5007164;28;20053;-72
2021/08/06 04:27:11;;;;;;;3.30;3.00;;;;;;;14.51;52.35;94443.53;5008661;28;20034;-72
2021/08/06 04:29:36;;;;;;;4.18;3.55;;;;;;;13.30;55.62;94444.19;5008451;28;20037;-72
2021/08/06 04:32:02;;;;;;;2.78;2.58;;;;;;;13.89;54.27;94435.63;5007124;28;20069;-72
2021/08/06 04:34:27;;;;;;;2.80;2.60;;;;;;;14.27;52.59;94438.13;5007110;28;20030;-73
2021/08/06 04:36:54;;;;;;;3.10;2.78;;;;;;;14.61;51.72;94430.38;5008136;28;20399;-73
2021/08/06 04:39:20;;;;;;;3.35;3.05;;;;;;;14.10;53.46;94430.78;5008617;28;20037;-72
2021/08/06 04:41:45;;;;;;;3.10;2.80;;;;;;;14.43;52.85;94432.13;5007038;28;20159;-72
2021/08/06 04:44:11;;;;;;;4.10;2.50;;;;;;;14.43;52.11;94429.44;5006921;28;20034;-72
2021/08/06 04:46:36;;;;;;;2.83;2.53;;;;;;;14.72;52.02;94426.88;5010115;28;20046;-72
2021/08/06 04:49:02;;;;;;;2.50;2.30;;;;;;;14.73;51.65;94433.06;5009396;28;20038;-71
2021/08/06 04:51:27;;;;;;;2.42;2.22;;;;;;;14.85;51.72;94435.75;5010410;28;20084;-71
2021/08/06 04:53:52;;;;;;;2.30;2.20;;;;;;;14.90;51.39;94435.03;5012418;28;20034;-71
2021/08/06 04:56:18;;;;;;;2.75;2.55;;;;;;;14.92;51.01;94433.75;5011645;28;20064;-71
2021/08/06 04:58:43;;;;;;;1.98;1.88;;;;;;;14.93;51.35;94435.38;5010919;28;20348;-71
2021/08/06 05:01:09;;;;;;;2.40;2.20;;;;;;;14.93;51.47;94429.22;5011703;28;20053;-72
2021/08/06 05:03:34;;;;;;;2.13;2.00;;;;;;;14.92;51.59;94425.72;5026767;28;20041;-71
2021/08/06 05:06:00;;;;;;;1.60;1.50;;;;;;;14.77;51.52;94425.38;5010294;28;20402;-72
2021/08/06 05:08:25;;;;;;;1.60;1.50;;;;;;;14.93;51.34;94426.53;5010463;28;20042;-72
2021/08/06 05:10:51;;;;;;;3.63;1.65;;;;;;;15.11;51.08;94420.22;5011262;28;20046;-71
2021/08/06 05:13:16;;;;;;;1.77;1.67;;;;;;;15.02;50.16;94418.97;5010004;28;20049;-72
2021/08/06 05:15:41;;;;;;;1.40;1.30;;;;;;;15.24;50.48;94419.94;5009811;28;20495;-72
2021/08/06 05:18:07;;;;;;;2.45;1.30;;;;;;;15.08;50.84;94415.31;5010740;28;20384;-72
2021/08/06 05:20:33;;;;;;;1.30;1.23;;;;;;;15.10;50.54;94418.59;5011067;28;20030;-71
2021/08/06 05:22:58;;;;;;;1.35;1.30;;;;;;;15.09;51.19;94422.31;5010606;28;20447;-71
2021/08/06 05:25:24;;;;;;;1.77;1.50;;;;;;;15.07;51.67;94416.38;5010915;28;20121;-71
2021/08/06 05:27:49;;;;;;;4.68;1.60;;;;;;;14.89;50.82;94420.81;5011589;28;20110;-72
2021/08/06 05:30:15;;;;;;;6.05;2.03;;;;;;;14.98;51.02;94410.56;5011345;28;20105;-72
2021/08/06 05:32:41;;;;;;;142.60;4.97;;;;;;;14.86;52.07;94418.63;5026247;28;20110;-72
2021/08/06 05:35:06;;;;;;;25.17;2.13;;;;;;;14.87;52.16;94416.75;4977933;28;20086;-72
2021/08/06 05:37:32;;;;;;;39.45;2.60;;;;;;;15.07;51.79;94419.06;5011418;28;20044;-72
2021/08/06 05:39:57;;;;;;;4.30;1.60;;;;;;;14.52;52.92;94413.81;5010661;28;20462;-72
2021/08/06 05:42:22;;;;;;;33.72;2.55;;;;;;;14.84;52.49;94416.19;5011687;28;20535;-72
2021/08/06 05:44:48;;;;;;;14.15;2.22;;;;;;;14.76;52.31;94415.72;5010030;28;20117;-72
2021/08/06 05:47:13;;;;;;;24.95;2.50;;;;;;;14.84;52.74;94418.03;5010765;28;20093;-72
2021/08/06 05:49:39;;;;;;;69.13;3.22;;;;;;;14.89;52.44;94418.13;5007221;28;20091;-72
2021/08/06 05:52:04;;;;;;;81.00;3.95;;;;;;;12.83;58.51;94426.78;5011119;28;20164;-72
2021/08/06 05:54:30;;;;;;;12.90;2.30;;;;;;;13.08;58.50;94412.56;5006372;28;20087;-71
2021/08/06 05:56:55;;;;;;;35.20;2.63;;;;;;;13.43;57.22;94411.13;5041219;28;20106;-71
2021/08/06 05:59:21;;;;;;;18.92;2.35;;;;;;;14.04;55.54;94418.31;5010705;28;20152;-72
2021/08/06 06:01:46;;;;;;;4.47;2.17;;;;;;;14.18;54.85;94413.56;5011169;28;20449;-71
2021/08/06 06:04:12;;;;;;;32.92;2.85;;;;;;;14.30;54.61;94414.41;5025672;28;20522;-72
2021/08/06 06:06:37;;;;;;;3.38;2.10;;;;;;;13.96;55.40;94414.09;5008911;28;20164;-72
2021/08/06 06:09:03;;;;;;;25.45;2.40;;;;;;;14.06;54.31;94416.22;5010170;28;20103;-72
2021/08/06 06:11:28;;;;;;;2.53;2.00;;;;;;;14.76;53.34;94423.75;5010202;28;20515;-72
2021/08/06 06:13:56;;;;;;;1.60;1.50;;;;;;;14.90;52.58;94419.78;5010869;28;20082;-71
2021/08/06 06:16:21;;;;;;;1.10;1.10;;;;;;;14.46;54.03;94420.13;5009898;28;20109;-71
2021/08/06 06:18:47;;;;;;;1.27;1.27;;;;;;;14.11;54.96;94415.53;5010860;28;20078;-71
2021/08/06 06:21:12;;;;;;;1.33;1.33;;;;;;;14.46;54.15;94417.44;5010215;28;20110;-72
2021/08/06 06:23:38;;;;;;;1.30;1.23;;;;;;;14.73;53.27;94414.31;5010389;28;20109;-72
2021/08/06 06:26:05;;;;;;;0.88;0.88;;;;;;;14.75;52.78;94411.41;5008856;28;20085;-72
2021/08/06 06:28:31;;;;;;;0.82;0.82;;;;;;;14.85;52.25;94411.63;5009003;28;20462;-72
2021/08/06 06:30:56;;;;;;;0.85;0.60;;;;;;;14.59;53.36;94413.72;4994812;28;20086;-71
2021/08/06 06:33:22;;;;;;;0.50;0.50;;;;;;;15.09;52.32;94423.13;5008578;28;20110;-71
2021/08/06 06:35:47;;;;;;;0.70;0.70;;;;;;;14.38;53.74;94415.91;5009393;28;20121;-72
2021/08/06 06:38:13;;;;;;;0.65;0.65;;;;;;;14.55;53.71;94417.91;5008888;28;20081;-71
2021/08/06 06:40:38;;;;;;;0.28;0.28;;;;;;;14.72;53.36;94412.66;5009928;28;20113;-72
2021/08/06 06:43:04;;;;;;;0.70;0.70;;;;;;;14.64;53.07;94411.16;4976013;28;20086;-71
2021/08/06 06:45:29;;;;;;;0.75;0.75;;;;;;;14.07;55.30;94428.53;5005142;28;20113;-72
2021/08/06 06:47:54;;;;;;;0.60;0.60;;;;;;;14.54;53.42;94421.63;5004189;28;20114;-72
2021/08/06 06:50:25;;;;;;;1.40;0.70;;;;;;;12.47;60.55;94428.34;5018004;28;20634;-72
2021/08/06 06:52:50;;;;;;;0.60;0.60;;;;;;;13.74;56.42;94409.25;5006843;28;20606;-72
2021/08/06 06:55:16;;;;;;;1.10;1.10;;;;;;;14.48;54.05;94412.66;5001817;28;20136;-72
2021/08/06 06:57:41;;;;;;;0.88;0.88;;;;;;;13.96;55.96;94427.47;4988904;28;20097;-72
2021/08/06 07:00:07;;;;;;;0.80;0.80;;;;;;;14.06;55.82;94421.56;5003165;28;20066;-71
2021/08/06 07:02:32;;;;;;;2.67;1.08;;;;;;;14.42;53.57;94419.75;5000151;28;20296;-72
2021/08/06 07:04:58;;;;;;;1.95;0.90;;;;;;;14.72;53.64;94426.03;5003645;28;20041;-72
2021/08/06 07:07:23;;;;;;;1.13;1.10;;;;;;;13.20;58.07;94426.00;5003075;28;20032;-72
2021/08/06 07:09:49;;;;;;;1.25;0.98;;;;;;;13.68;56.19;94426.22;5005781;28;20450;-71
2021/08/06 07:12:14;;;;;;;1.10;1.10;;;;;;;14.15;55.67;94432.78;5000989;28;20042;-73
2021/08/06 07:14:40;;;;;;;1.27;1.17;;;;;;;13.88;55.54;94431.31;5003145;28;20048;-72
2021/08/06 07:17:05;;;;;;;1.10;1.10;;;;;;;14.32;55.06;94433.72;5003888;28;20092;-72
2021/08/06 07:19:31;;;;;;;2.45;1.20;;;;;;;12.26;61.41;94451.72;5003372;28;20034;-72
2021/08/06 07:21:56;;;;;;;1.10;1.10;;;;;;;13.72;57.43;94447.94;5004456;28;20030;-72
2021/08/06 07:24:21;;;;;;;1.58;1.30;;;;;;;13.20;59.10;94442.03;5008521;28;20057;-72
2021/08/06 07:26:47;;;;;;;1.23;1.23;;;;;;;12.80;59.86;94443.25;5004432;28;20049;-71
2021/08/06 07:29:12;;;;;;;1.95;1.10;;;;;;;13.00;59.28;94444.91;5004404;28;20041;-72
2021/08/06 07:31:38;;;;;;;1.38;1.08;;;;;;;12.54;61.61;94450.44;4998866;28;20045;-72
2021/08/06 07:34:03;;;;;;;2.70;1.30;;;;;;;13.35;58.17;94464.88;5006818;28;20041;-71
2021/08/06 07:36:28;;;;;;;2.10;1.05;;;;;;;11.89;63.61;94474.50;5004117;28;20034;-71
2021/08/06 07:38:54;;;;;;;2.85;1.10;;;;;;;12.60;60.54;94459.44;5003015;28;20443;-71
2021/08/06 07:41:19;;;;;;;0.90;0.90;;;;;;;13.34;58.66;94458.72;5000499;28;20045;-71
2021/08/06 07:43:45;;;;;;;1.95;1.55;;;;;;;13.74;57.53;94464.59;5002377;28;20507;-72
2021/08/06 07:46:10;;;;;;;1.08;0.98;;;;;;;13.13;58.72;94468.81;5003155;28;20491;-72
2021/08/06 07:48:36;;;;;;;1.23;0.90;;;;;;;13.26;58.93;94481.22;5000935;28;20030;-72
2021/08/06 07:51:01;;;;;;;1.95;0.80;;;;;;;14.24;55.86;94481.44;5004342;28;20041;-72
2021/08/06 07:53:27;;;;;;;1.27;0.85;;;;;;;13.90;56.44;94482.72;5005742;28;20049;-71
2021/08/06 07:55:52;;;;;;;0.95;0.77;;;;;;;13.18;58.54;94481.50;5006591;28;20847;-71
2021/08/06 07:58:19;;;;;;;1.63;1.10;;;;;;;11.95;63.06;94491.50;5010414;28;20688;-70
2021/08/06 08:00:44;;;;;;;3.42;0.75;;;;;;;13.39;58.38;94474.91;5007121;28;20033;-70
2021/08/06 08:03:10;;;;;;;4.75;0.90;;;;;;;13.75;57.67;94485.78;5007199;28;20116;-71
2021/08/06 08:05:35;;;;;;;0.63;0.63;;;;;;;13.26;58.56;94480.41;5007337;28;20034;-71
2021/08/06 08:08:01;;;;;;;1.27;1.10;;;;;;;13.42;58.15;94487.00;5006871;28;20042;-71
2021/08/06 08:10:26;;;;;;;1.98;1.30;;;;;;;13.81;58.28;94481.38;5006693;28;20104;-71
2021/08/06 08:12:52;;;;;;;1.05;0.60;;;;;;;13.52;57.99;94479.28;5005298;28;20034;-72
2021/08/06 08:15:17;;;;;;;1.52;1.05;;;;;;;13.95;56.98;94488.19;5011462;28;20033;-71
2021/08/06 08:17:42;;;;;;;2.85;0.80;;;;;;;14.46;55.45;94487.06;5007075;28;20087;-71
2021/08/06 08:20:10;;;;;;;1.02;0.70;;;;;;;14.04;57.18;94496.72;5011313;28;20050;-71
2021/08/06 08:22:36;;;;;;;0.70;0.70;;;;;;;13.16;60.09;94495.09;5007913;28;20028;-71
2021/08/06 08:25:01;;;;;;;1.23;1.13;;;;;;;13.77;58.24;94488.22;5008230;28;20057;-71
2021/08/06 08:27:28;;;;;;;1.52;1.13;;;;;;;14.16;56.70;94488.75;5007966;28;20045;-71
2021/08/06 08:29:54;;;;;;;1.30;0.90;;;;;;;14.26;58.12;94485.50;5006855;28;20444;-71
2021/08/06 08:32:19;;;;;;;1.02;0.80;;;;;;;13.76;58.38;94486.56;5005564;28;20034;-71
2021/08/06 08:34:45;;;;;;;1.83;1.13;;;;;;;13.74;59.58;94496.69;5010268;28;20030;-71
2021/08/06 08:37:10;;;;;;;1.92;0.82;;;;;;;12.88;60.25;94487.53;5007974;28;20046;-71
2021/08/06 08:39:36;;;;;;;0.93;0.75;;;;;;;13.97;56.80;94498.66;4989745;28;20052;-71
2021/08/06 08:42:03;;;;;;;0.90;0.82;;;;;;;13.62;58.53;94491.28;5009744;28;20022;-71
2021/08/06 08:44:32;;;;;;;2.20;1.05;;;;;;;13.81;58.01;94492.09;5009037;28;20340;-71
2021/08/06 08:46:58;;;;;;;1.13;0.77;;;;;;;13.86;56.51;94494.88;5009960;28;20479;-72
2021/08/06 08:49:24;;;;;;;9.27;3.80;;;;;;;14.62;55.74;94490.91;4990559;28;20196;-72
2021/08/06 08:51:49;;;;;;;3.28;0.80;;;;;;;14.67;55.55;94493.72;4989963;28;20522;-72
2021/08/06 08:54:15;;;;;;;2.53;0.80;;;;;;;14.40;55.97;94487.97;5002513;28;20410;-72
2021/08/06 08:56:40;;;;;;;0.90;0.90;;;;;;;14.59;55.23;94500.22;5007397;28;20046;-71
2021/08/06 08:59:06;;;;;;;2.85;0.85;;;;;;;14.98;54.61;94491.78;5011662;28;20034;-73
2021/08/06 09:01:31;;;;;;;1.77;1.23;;;;;;;14.80;53.58;94510.66;5006319;28;20033;-72
2021/08/06 09:03:57;;;;;;;1.95;1.25;;;;;;;14.27;54.75;94497.00;5003036;28;20065;-73
2021/08/06 09:06:42;;;;;;;1.83;1.15;;;;;;;14.30;55.10;94499.25;5011209;28;20030;-73
2021/08/06 09:09:12;;;;;;;1.17;1.08;;;;;;;15.70;51.49;94497.03;5009449;28;20525;-72
2021/08/06 09:11:37;;;;;;;1.58;1.48;;;;;;;15.58;51.28;94493.59;5005798;28;20038;-72
2021/08/06 09:14:24;;;;;;;1.30;1.00;;;;;;;16.11;50.03;94491.63;5008507;28;20553;-72
2021/08/06 09:17:14;;;;;;;2.45;1.17;;;;;;;16.33;48.87;94487.44;5006477;28;20360;-72
2021/08/06 09:19:44;;;;;;;2.75;1.30;;;;;;;15.89;50.16;94480.75;5009454;28;20113;-73
2021/08/06 09:22:17;;;;;;;1.90;1.20;;;;;;;16.00;50.70;94479.06;5007855;28;20043;-72
2021/08/06 09:25:15;;;;;;;1.63;1.10;;;;;;;15.49;51.92;94488.56;5008676;28;20072;-72
2021/08/06 09:27:47;;;;;;;3.63;1.50;;;;;;;14.63;54.61;94505.13;5004447;28;20044;-72
2021/08/06 09:30:24;;;;;;;2.53;1.40;;;;;;;13.46;58.14;94504.22;5005875;28;20053;-72
2021/08/06 09:32:54;;;;;;;3.63;1.52;;;;;;;14.85;53.97;94497.38;5011932;28;20074;-72
2021/08/06 09:35:25;;;;;;;2.42;1.35;;;;;;;14.46;54.38;94495.88;5012576;28;20062;-72
2021/08/06 09:37:51;;;;;;;2.15;1.23;;;;;;;14.59;53.50;94507.47;5042965;28;20041;-73
2021/08/06 09:40:19;;;;;;;6.00;1.55;;;;;;;14.03;56.08;94511.16;5012570;28;20041;-72
2021/08/06 09:43:14;;;;;;;2.72;1.20;;;;;;;14.17;56.54;94511.78;5011333;28;20034;-72
2021/08/06 09:45:40;;;;;;;2.38;1.58;;;;;;;14.09;55.81;94509.44;5012056;28;20048;-72
2021/08/06 09:48:07;;;;;;;3.53;1.50;;;;;;;14.00;55.87;94508.13;5009385;28;20042;-73
2021/08/06 09:50:59;;;;;;;3.03;1.70;;;;;;;14.86;53.26;94515.09;5014527;28;20034;-73
2021/08/06 09:53:25;;;;;;;3.00;1.30;;;;;;;14.77;53.94;94509.25;5011141;28;20042;-73
2021/08/06 09:55:51;;;;;;;4.40;1.90;;;;;;;14.89;53.36;94509.25;5009087;28;20149;-73
2021/08/06 09:58:21;;;;;;;2.75;1.52;;;;;;;15.18;53.00;94504.00;5011380;28;20030;-73
2021/08/06 10:00:51;;;;;;;2.78;2.10;;;;;;;15.52;51.78;94511.41;5009209;28;20041;-73
2021/08/06 10:03:26;;;;;;;1.90;1.77;;;;;;;15.27;52.90;94506.31;5009828;28;20120;-73
2021/08/06 10:06:10;;;;;;;4.63;1.50;;;;;;;15.77;50.36;94504.94;5008135;28;20479;-73
2021/08/06 10:08:35;;;;;;;3.00;1.55;;;;;;;15.03;52.91;94514.38;5012995;28;20049;-73
2021/08/06 10:11:01;;;;;;;5.07;1.92;;;;;;;14.88;52.76;94518.34;5008909;28;20049;-73
2021/08/06 10:13:27;;;;;;;2.72;1.50;;;;;;;15.69;51.33;94516.06;5008706;28;20049;-73
2021/08/06 10:15:52;;;;;;;2.88;1.65;;;;;;;15.83;50.74;94522.78;4991812;28;20042;-74
2021/08/06 10:18:17;;;;;;;1.48;1.13;;;;;;;16.46;49.07;94519.38;5015358;28;20029;-73
2021/08/06 10:20:43;;;;;;;3.58;1.60;;;;;;;14.71;51.17;94529.72;5009609;28;20144;-74
2021/08/06 10:23:08;;;;;;;1.92;1.30;;;;;;;15.92;48.02;94525.09;4994963;28;20137;-73
2021/08/06 10:25:34;;;;;;;2.35;1.00;;;;;;;15.03;49.73;94557.25;5007787;28;20037;-73
2021/08/06 10:28:00;;;;;;;2.97;1.52;;;;;;;15.22;51.43;94523.94;5014115;28;20057;-73
2021/08/06 10:30:28;;;;;;;4.45;1.80;;;;;;;14.52;51.91;94528.97;4988549;28;20035;-73
2021/08/06 10:33:12;;;;;;;;;;;;;;;15.41;50.38;94523.81;4992325;28;20038;-72
2021/08/06 10:35:54;;;;;;;2.10;1.30;;;;;;;15.59;50.15;94512.13;5009310;28;19921;-73
2021/08/06 10:38:40;;;;;;;1.25;1.15;;;;;;;15.52;49.07;94532.03;4994021;28;20029;-73
2021/08/06 10:41:20;;;;;;;1.48;1.20;;;;;;;15.09;50.95;94526.84;5013341;28;20108;-72
2021/08/06 10:44:02;;;;;;;2.58;1.48;;;;;;;15.19;51.10;94513.66;5016187;28;20380;-72
2021/08/06 10:46:29;;;;;;;3.28;1.30;;;;;;;15.85;48.45;94519.88;5013661;28;20076;-72
2021/08/06 10:48:55;;;;;;;2.83;1.20;;;;;;;14.77;51.56;94522.66;4995228;28;20041;-73
2021/08/06 10:51:21;;;;;;;4.93;1.67;;;;;;;15.57;49.56;94519.59;5008865;28;20069;-72
2021/08/06 10:53:55;;;;;;;2.08;1.25;;;;;;;15.32;50.64;94534.06;5003864;28;20064;-73
2021/08/06 10:56:29;;;;;;;1.48;1.30;;;;;;;15.96;50.01;94529.75;5007965;28;20042;-72
2021/08/06 10:59:02;;;;;;;3.00;1.80;;;;;;;16.00;48.41;94522.84;5012022;28;20029;-72
2021/08/06 11:01:34;;;;;;;4.05;2.05;;;;;;;15.88;48.99;94532.81;4992453;28;20610;-73
2021/08/06 11:04:11;;;;;;;4.90;1.70;;;;;;;15.30;50.17;94530.00;5004485;28;20050;-72
2021/08/06 11:06:41;;;;;;;3.05;1.60;;;;;;;15.32;49.58;94520.66;5008077;28;20574;-73
2021/08/06 11:09:10;;;;;;;4.20;1.67;;;;;;;15.38;51.46;94526.94;5006801;28;20037;-72
2021/08/06 11:11:45;;;;;;;2.72;1.48;;;;;;;14.98;51.96;94548.06;5022163;28;20429;-73
2021/08/06 11:14:32;;;;;;;3.50;1.83;;;;;;;15.09;51.29;94540.22;5008894;28;20026;-73
2021/08/06 11:17:17;;;;;;;2.78;2.00;;;;;;;15.66;49.51;94532.63;5006118;28;20038;-73
2021/08/06 11:19:52;;;;;;;2.42;1.20;;;;;;;15.73;50.17;94539.50;5008065;28;20045;-74
2021/08/06 11:22:18;;;;;;;3.10;1.60;;;;;;;16.23;49.20;94545.28;5007423;28;20117;-73
2021/08/06 11:24:50;;;;;;;3.25;1.40;;;;;;;15.65;49.23;94529.16;5009785;28;20125;-73
2021/08/06 11:27:17;;;;;;;3.15;1.30;;;;;;;15.77;48.92;94534.47;5022303;28;20053;-73
2021/08/06 11:29:43;;;;;;;1.85;1.23;;;;;;;16.23;49.23;94541.78;4993493;28;20092;-73
2021/08/06 11:32:15;;;;;;;1.33;1.15;;;;;;;16.61;46.57;94545.69;4996676;28;20057;-73
2021/08/06 11:34:50;;;;;;;2.63;1.33;;;;;;;16.55;48.03;94545.88;4990383;28;20026;-73